sensor_id;sensor_type;location;lat;lon;timestamp;temperature;humidity
11965;DHT22;6042;41.326;19.826;2022-07-04T00:00:32;27.60;94.00
11965;DHT22;6042;41.326;19.826;2022-07-04T00:03:00;27.60;94.50
11965;DHT22;6042;41.326;19.826;2022-07-04T00:05:29;27.60;94.70
11965;DHT22;6042;41.326;19.826;2022-07-04T00:07:57;27.60;94.30
11965;DHT22;6042;41.326;19.826;2022-07-04T00:10:26;27.60;94.30
11965;DHT22;6042;41.326;19.826;2022-07-04T00:12:56;27.50;93.70
11965;DHT22;6042;41.326;19.826;2022-07-04T00:15:25;27.50;93.90
11965;DHT22;6042;41.326;19.826;2022-07-04T00:17:53;27.40;93.90
11965;DHT22;6042;41.326;19.826;2022-07-04T00:20:22;27.50;93.90
11965;DHT22;6042;41.326;19.826;2022-07-04T00:22:50;27.50;94.20
11965;DHT22;6042;41.326;19.826;2022-07-04T00:25:19;27.60;95.10
11965;DHT22;6042;41.326;19.826;2022-07-04T00:27:47;27.60;95.30
11965;DHT22;6042;41.326;19.826;2022-07-04T00:30:17;27.50;95.10
11965;DHT22;6042;41.326;19.826;2022-07-04T00:32:47;27.50;95.30
11965;DHT22;6042;41.326;19.826;2022-07-04T00:35:15;27.50;95.20
11965;DHT22;6042;41.326;19.826;2022-07-04T00:37:43;27.50;95.80
11965;DHT22;6042;41.326;19.826;2022-07-04T00:40:12;27.40;95.60
11965;DHT22;6042;41.326;19.826;2022-07-04T00:42:41;27.30;95.20
11965;DHT22;6042;41.326;19.826;2022-07-04T00:45:10;27.30;94.50
11965;DHT22;6042;41.326;19.826;2022-07-04T00:47:40;27.30;94.50
11965;DHT22;6042;41.326;19.826;2022-07-04T00:50:08;27.30;94.60
11965;DHT22;6042;41.326;19.826;2022-07-04T00:52:37;27.30;95.10
11965;DHT22;6042;41.326;19.826;2022-07-04T00:55:06;27.20;95.60
11965;DHT22;6042;41.326;19.826;2022-07-04T00:57:35;27.20;95.60
11965;DHT22;6042;41.326;19.826;2022-07-04T01:00:05;27.20;95.80
11965;DHT22;6042;41.326;19.826;2022-07-04T01:02:34;27.10;96.40
11965;DHT22;6042;41.326;19.826;2022-07-04T01:05:05;27.00;96.70
11965;DHT22;6042;41.326;19.826;2022-07-04T01:07:35;26.90;96.40
11965;DHT22;6042;41.326;19.826;2022-07-04T01:10:04;27.00;95.90
11965;DHT22;6042;41.326;19.826;2022-07-04T01:12:34;26.90;95.70
11965;DHT22;6042;41.326;19.826;2022-07-04T01:15:03;27.00;95.40
11965;DHT22;6042;41.326;19.826;2022-07-04T01:17:33;27.10;94.80
11965;DHT22;6042;41.326;19.826;2022-07-04T01:20:04;27.00;94.80
11965;DHT22;6042;41.326;19.826;2022-07-04T01:22:35;26.90;94.90
11965;DHT22;6042;41.326;19.826;2022-07-04T01:25:04;26.90;94.80
11965;DHT22;6042;41.326;19.826;2022-07-04T01:27:32;26.80;94.60
11965;DHT22;6042;41.326;19.826;2022-07-04T01:30:01;26.80;94.80
11965;DHT22;6042;41.326;19.826;2022-07-04T01:32:29;26.70;95.00
11965;DHT22;6042;41.326;19.826;2022-07-04T01:34:58;26.70;95.40
11965;DHT22;6042;41.326;19.826;2022-07-04T01:37:26;26.70;95.30
11965;DHT22;6042;41.326;19.826;2022-07-04T01:39:56;26.70;95.40
11965;DHT22;6042;41.326;19.826;2022-07-04T01:42:25;26.70;95.40
11965;DHT22;6042;41.326;19.826;2022-07-04T01:44:53;26.60;95.60
11965;DHT22;6042;41.326;19.826;2022-07-04T01:47:22;26.60;95.50
11965;DHT22;6042;41.326;19.826;2022-07-04T01:49:50;26.60;96.00
11965;DHT22;6042;41.326;19.826;2022-07-04T01:52:19;26.80;96.40
11965;DHT22;6042;41.326;19.826;2022-07-04T01:54:47;26.80;96.70
11965;DHT22;6042;41.326;19.826;2022-07-04T01:57:17;26.70;96.80
11965;DHT22;6042;41.326;19.826;2022-07-04T01:59:46;26.70;97.20
11965;DHT22;6042;41.326;19.826;2022-07-04T02:02:35;26.50;97.60
11965;DHT22;6042;41.326;19.826;2022-07-04T02:05:04;26.40;97.80
11965;DHT22;6042;41.326;19.826;2022-07-04T02:07:34;26.30;98.00
11965;DHT22;6042;41.326;19.826;2022-07-04T02:10:03;26.30;98.00
11965;DHT22;6042;41.326;19.826;2022-07-04T02:12:33;26.30;97.80
11965;DHT22;6042;41.326;19.826;2022-07-04T02:15:19;26.30;97.80
11965;DHT22;6042;41.326;19.826;2022-07-04T02:17:48;26.40;97.50
11965;DHT22;6042;41.326;19.826;2022-07-04T02:20:17;26.40;97.40
11965;DHT22;6042;41.326;19.826;2022-07-04T02:22:45;26.40;97.30
11965;DHT22;6042;41.326;19.826;2022-07-04T02:25:15;26.60;98.20
11965;DHT22;6042;41.326;19.826;2022-07-04T02:27:45;26.70;98.70
11965;DHT22;6042;41.326;19.826;2022-07-04T02:30:13;26.60;99.70
11965;DHT22;6042;41.326;19.826;2022-07-04T02:32:42;26.60;99.30
11965;DHT22;6042;41.326;19.826;2022-07-04T02:35:11;26.50;98.50
11965;DHT22;6042;41.326;19.826;2022-07-04T02:37:40;26.40;98.60
11965;DHT22;6042;41.326;19.826;2022-07-04T02:40:09;26.40;98.50
11965;DHT22;6042;41.326;19.826;2022-07-04T02:42:38;26.50;98.10
11965;DHT22;6042;41.326;19.826;2022-07-04T02:45:09;26.40;98.20
11965;DHT22;6042;41.326;19.826;2022-07-04T02:47:38;26.40;98.10
11965;DHT22;6042;41.326;19.826;2022-07-04T02:50:07;26.30;97.70
11965;DHT22;6042;41.326;19.826;2022-07-04T02:52:36;26.20;97.80
11965;DHT22;6042;41.326;19.826;2022-07-04T02:55:05;26.30;97.40
11965;DHT22;6042;41.326;19.826;2022-07-04T02:57:33;26.20;97.50
11965;DHT22;6042;41.326;19.826;2022-07-04T03:00:05;26.10;97.40
11965;DHT22;6042;41.326;19.826;2022-07-04T03:02:35;26.00;97.50
11965;DHT22;6042;41.326;19.826;2022-07-04T03:05:05;26.10;97.80
11965;DHT22;6042;41.326;19.826;2022-07-04T03:07:33;26.10;98.00
11965;DHT22;6042;41.326;19.826;2022-07-04T03:10:02;26.10;97.70
11965;DHT22;6042;41.326;19.826;2022-07-04T03:12:30;26.10;97.00
11965;DHT22;6042;41.326;19.826;2022-07-04T03:14:59;26.20;96.90
11965;DHT22;6042;41.326;19.826;2022-07-04T03:17:27;26.20;96.70
11965;DHT22;6042;41.326;19.826;2022-07-04T03:19:59;26.20;96.60
11965;DHT22;6042;41.326;19.826;2022-07-04T03:22:27;26.20;96.80
11965;DHT22;6042;41.326;19.826;2022-07-04T03:24:56;26.20;97.00
11965;DHT22;6042;41.326;19.826;2022-07-04T03:27:24;26.30;96.90
11965;DHT22;6042;41.326;19.826;2022-07-04T03:29:53;26.30;97.20
11965;DHT22;6042;41.326;19.826;2022-07-04T03:32:21;26.30;97.10
11965;DHT22;6042;41.326;19.826;2022-07-04T03:34:50;26.20;97.40
11965;DHT22;6042;41.326;19.826;2022-07-04T03:37:20;26.20;97.00
11965;DHT22;6042;41.326;19.826;2022-07-04T03:39:48;26.30;97.20
11965;DHT22;6042;41.326;19.826;2022-07-04T03:42:17;26.20;97.10
11965;DHT22;6042;41.326;19.826;2022-07-04T03:44:45;26.20;96.90
11965;DHT22;6042;41.326;19.826;2022-07-04T03:47:15;26.20;97.00
11965;DHT22;6042;41.326;19.826;2022-07-04T03:49:43;26.10;97.00
11965;DHT22;6042;41.326;19.826;2022-07-04T03:52:12;26.00;97.20
11965;DHT22;6042;41.326;19.826;2022-07-04T03:54:42;26.10;96.80
11965;DHT22;6042;41.326;19.826;2022-07-04T03:57:11;26.10;96.80
11965;DHT22;6042;41.326;19.826;2022-07-04T03:59:39;26.10;96.70
11965;DHT22;6042;41.326;19.826;2022-07-04T04:02:08;26.10;96.70
11965;DHT22;6042;41.326;19.826;2022-07-04T04:04:36;26.20;96.80
11965;DHT22;6042;41.326;19.826;2022-07-04T04:07:22;26.30;96.80
11965;DHT22;6042;41.326;19.826;2022-07-04T04:09:52;26.20;97.10
11965;DHT22;6042;41.326;19.826;2022-07-04T04:12:21;26.20;97.20
11965;DHT22;6042;41.326;19.826;2022-07-04T04:14:49;26.20;96.90
11965;DHT22;6042;41.326;19.826;2022-07-04T04:17:18;26.10;97.10
11965;DHT22;6042;41.326;19.826;2022-07-04T04:19:46;26.10;97.30
11965;DHT22;6042;41.326;19.826;2022-07-04T04:22:15;26.20;97.50
11965;DHT22;6042;41.326;19.826;2022-07-04T04:24:44;26.20;97.10
11965;DHT22;6042;41.326;19.826;2022-07-04T04:27:14;26.30;96.90
11965;DHT22;6042;41.326;19.826;2022-07-04T04:29:42;26.40;95.90
11965;DHT22;6042;41.326;19.826;2022-07-04T04:32:11;26.70;95.60
11965;DHT22;6042;41.326;19.826;2022-07-04T04:34:39;26.60;95.20
11965;DHT22;6042;41.326;19.826;2022-07-04T04:37:08;26.80;95.20
11965;DHT22;6042;41.326;19.826;2022-07-04T04:39:37;26.70;95.30
11965;DHT22;6042;41.326;19.826;2022-07-04T04:42:06;26.70;95.50
11965;DHT22;6042;41.326;19.826;2022-07-04T04:44:36;26.70;95.50
11965;DHT22;6042;41.326;19.826;2022-07-04T04:47:04;26.90;95.20
11965;DHT22;6042;41.326;19.826;2022-07-04T04:49:33;27.00;95.10
11965;DHT22;6042;41.326;19.826;2022-07-04T04:52:01;27.00;94.80
11965;DHT22;6042;41.326;19.826;2022-07-04T04:54:30;27.00;95.00
11965;DHT22;6042;41.326;19.826;2022-07-04T04:56:58;26.90;95.10
11965;DHT22;6042;41.326;19.826;2022-07-04T04:59:27;26.90;95.20
11965;DHT22;6042;41.326;19.826;2022-07-04T05:01:58;27.00;95.00
11965;DHT22;6042;41.326;19.826;2022-07-04T05:04:26;27.10;94.80
11965;DHT22;6042;41.326;19.826;2022-07-04T05:06:55;27.20;94.80
11965;DHT22;6042;41.326;19.826;2022-07-04T05:09:24;27.30;94.50
11965;DHT22;6042;41.326;19.826;2022-07-04T05:11:52;27.40;94.50
11965;DHT22;6042;41.326;19.826;2022-07-04T05:14:21;27.40;94.60
11965;DHT22;6042;41.326;19.826;2022-07-04T05:16:49;27.50;94.70
11965;DHT22;6042;41.326;19.826;2022-07-04T05:19:19;27.50;94.80
11965;DHT22;6042;41.326;19.826;2022-07-04T05:21:48;27.60;94.70
11965;DHT22;6042;41.326;19.826;2022-07-04T05:24:17;27.60;94.70
11965;DHT22;6042;41.326;19.826;2022-07-04T05:26:45;27.70;94.60
11965;DHT22;6042;41.326;19.826;2022-07-04T05:29:14;27.90;94.50
11965;DHT22;6042;41.326;19.826;2022-07-04T05:31:42;27.90;94.40
11965;DHT22;6042;41.326;19.826;2022-07-04T05:34:11;28.00;94.10
11965;DHT22;6042;41.326;19.826;2022-07-04T05:36:40;28.10;94.20
11965;DHT22;6042;41.326;19.826;2022-07-04T05:39:09;28.10;94.00
11965;DHT22;6042;41.326;19.826;2022-07-04T05:41:37;28.10;94.20
11965;DHT22;6042;41.326;19.826;2022-07-04T05:44:06;28.30;94.20
11965;DHT22;6042;41.326;19.826;2022-07-04T05:46:35;28.40;94.00
11965;DHT22;6042;41.326;19.826;2022-07-04T05:49:03;28.50;93.50
11965;DHT22;6042;41.326;19.826;2022-07-04T05:51:32;28.60;93.60
11965;DHT22;6042;41.326;19.826;2022-07-04T05:54:02;28.70;93.20
11965;DHT22;6042;41.326;19.826;2022-07-04T05:56:31;28.60;93.20
11965;DHT22;6042;41.326;19.826;2022-07-04T05:58:59;28.70;93.40
11965;DHT22;6042;41.326;19.826;2022-07-04T06:01:28;28.70;92.80
11965;DHT22;6042;41.326;19.826;2022-07-04T06:03:56;28.50;93.00
11965;DHT22;6042;41.326;19.826;2022-07-04T06:06:25;28.80;93.10
11965;DHT22;6042;41.326;19.826;2022-07-04T06:08:53;29.20;92.50
11965;DHT22;6042;41.326;19.826;2022-07-04T06:11:23;29.20;92.00
11965;DHT22;6042;41.326;19.826;2022-07-04T06:13:52;29.30;92.30
11965;DHT22;6042;41.326;19.826;2022-07-04T06:16:21;29.40;92.20
11965;DHT22;6042;41.326;19.826;2022-07-04T06:18:49;29.30;91.60
11965;DHT22;6042;41.326;19.826;2022-07-04T06:21:18;29.10;91.70
11965;DHT22;6042;41.326;19.826;2022-07-04T06:23:46;29.10;91.70
11965;DHT22;6042;41.326;19.826;2022-07-04T06:26:15;29.10;91.60
11965;DHT22;6042;41.326;19.826;2022-07-04T06:28:45;29.30;92.20
11965;DHT22;6042;41.326;19.826;2022-07-04T06:31:14;29.60;92.00
11965;DHT22;6042;41.326;19.826;2022-07-04T06:33:43;29.80;91.40
11965;DHT22;6042;41.326;19.826;2022-07-04T06:36:30;29.90;91.40
11965;DHT22;6042;41.326;19.826;2022-07-04T06:38:59;30.00;90.90
11965;DHT22;6042;41.326;19.826;2022-07-04T06:41:27;30.10;90.40
11965;DHT22;6042;41.326;19.826;2022-07-04T06:43:58;30.10;90.40
11965;DHT22;6042;41.326;19.826;2022-07-04T06:46:27;30.20;90.40
11965;DHT22;6042;41.326;19.826;2022-07-04T06:48:56;30.40;90.50
11965;DHT22;6042;41.326;19.826;2022-07-04T06:51:24;30.50;89.00
11965;DHT22;6042;41.326;19.826;2022-07-04T06:53:53;30.60;88.30
11965;DHT22;6042;41.326;19.826;2022-07-04T06:56:21;30.80;88.20
11965;DHT22;6042;41.326;19.826;2022-07-04T06:58:50;30.90;87.90
11965;DHT22;6042;41.326;19.826;2022-07-04T07:01:20;30.90;87.70
11965;DHT22;6042;41.326;19.826;2022-07-04T07:03:49;31.00;86.90
11965;DHT22;6042;41.326;19.826;2022-07-04T07:06:18;31.00;86.30
11965;DHT22;6042;41.326;19.826;2022-07-04T07:08:46;30.90;85.00
11965;DHT22;6042;41.326;19.826;2022-07-04T07:11:15;30.90;85.10
11965;DHT22;6042;41.326;19.826;2022-07-04T07:13:48;30.90;84.80
11965;DHT22;6042;41.326;19.826;2022-07-04T07:16:19;31.00;84.50
11965;DHT22;6042;41.326;19.826;2022-07-04T07:18:49;31.10;84.70
11965;DHT22;6042;41.326;19.826;2022-07-04T07:21:18;31.10;85.40
11965;DHT22;6042;41.326;19.826;2022-07-04T07:23:47;31.00;86.00
11965;DHT22;6042;41.326;19.826;2022-07-04T07:26:16;31.20;86.00
11965;DHT22;6042;41.326;19.826;2022-07-04T07:28:45;31.30;86.20
11965;DHT22;6042;41.326;19.826;2022-07-04T07:31:14;31.20;85.90
11965;DHT22;6042;41.326;19.826;2022-07-04T07:33:44;31.30;85.50
11965;DHT22;6042;41.326;19.826;2022-07-04T07:36:12;31.30;85.90
11965;DHT22;6042;41.326;19.826;2022-07-04T07:38:41;31.30;85.60
11965;DHT22;6042;41.326;19.826;2022-07-04T07:41:10;31.30;85.10
11965;DHT22;6042;41.326;19.826;2022-07-04T07:43:38;31.40;84.00
11965;DHT22;6042;41.326;19.826;2022-07-04T07:46:07;31.60;82.60
11965;DHT22;6042;41.326;19.826;2022-07-04T07:48:36;31.50;81.90
11965;DHT22;6042;41.326;19.826;2022-07-04T07:51:06;31.50;82.10
11965;DHT22;6042;41.326;19.826;2022-07-04T07:53:35;31.70;81.40
11965;DHT22;6042;41.326;19.826;2022-07-04T07:56:23;32.00;80.80
11965;DHT22;6042;41.326;19.826;2022-07-04T07:58:52;32.00;80.50
11965;DHT22;6042;41.326;19.826;2022-07-04T08:01:22;32.10;80.30
11965;DHT22;6042;41.326;19.826;2022-07-04T08:03:50;32.20;79.80
11965;DHT22;6042;41.326;19.826;2022-07-04T08:06:41;32.40;78.90
11965;DHT22;6042;41.326;19.826;2022-07-04T08:09:30;32.50;78.10
11965;DHT22;6042;41.326;19.826;2022-07-04T08:12:00;32.60;78.90
11965;DHT22;6042;41.326;19.826;2022-07-04T08:14:29;32.60;79.80
11965;DHT22;6042;41.326;19.826;2022-07-04T08:16:58;32.50;79.70
11965;DHT22;6042;41.326;19.826;2022-07-04T08:19:27;32.60;79.50
11965;DHT22;6042;41.326;19.826;2022-07-04T08:21:57;32.30;79.70
11965;DHT22;6042;41.326;19.826;2022-07-04T08:24:42;32.20;79.80
11965;DHT22;6042;41.326;19.826;2022-07-04T08:27:11;32.40;79.30
11965;DHT22;6042;41.326;19.826;2022-07-04T08:29:40;32.50;79.00
11965;DHT22;6042;41.326;19.826;2022-07-04T08:32:09;32.40;79.00
11965;DHT22;6042;41.326;19.826;2022-07-04T08:34:38;32.50;79.10
11965;DHT22;6042;41.326;19.826;2022-07-04T08:37:08;32.40;79.60
11965;DHT22;6042;41.326;19.826;2022-07-04T08:39:36;32.40;78.00
11965;DHT22;6042;41.326;19.826;2022-07-04T08:42:09;32.40;78.80
11965;DHT22;6042;41.326;19.826;2022-07-04T08:44:39;32.50;79.30
11965;DHT22;6042;41.326;19.826;2022-07-04T08:47:09;32.50;79.50
11965;DHT22;6042;41.326;19.826;2022-07-04T08:49:46;32.60;78.80
11965;DHT22;6042;41.326;19.826;2022-07-04T08:52:24;32.70;78.20
11965;DHT22;6042;41.326;19.826;2022-07-04T08:54:55;32.80;78.30
11965;DHT22;6042;41.326;19.826;2022-07-04T08:57:45;32.70;78.70
11965;DHT22;6042;41.326;19.826;2022-07-04T09:00:32;32.60;78.90
11965;DHT22;6042;41.326;19.826;2022-07-04T09:03:02;32.70;77.50
11965;DHT22;6042;41.326;19.826;2022-07-04T09:05:31;32.80;78.50
11965;DHT22;6042;41.326;19.826;2022-07-04T09:08:03;33.00;78.70
11965;DHT22;6042;41.326;19.826;2022-07-04T09:10:33;33.10;78.70
11965;DHT22;6042;41.326;19.826;2022-07-04T09:13:03;33.20;78.10
11965;DHT22;6042;41.326;19.826;2022-07-04T09:15:39;33.20;77.20
11965;DHT22;6042;41.326;19.826;2022-07-04T09:18:20;33.10;76.30
11965;DHT22;6042;41.326;19.826;2022-07-04T09:20:48;33.20;75.30
11965;DHT22;6042;41.326;19.826;2022-07-04T09:23:20;33.20;77.20
11965;DHT22;6042;41.326;19.826;2022-07-04T09:26:05;33.20;76.90
11965;DHT22;6042;41.326;19.826;2022-07-04T09:28:34;33.30;77.70
11965;DHT22;6042;41.326;19.826;2022-07-04T09:31:14;33.40;77.90
11965;DHT22;6042;41.326;19.826;2022-07-04T09:33:48;33.40;77.30
11965;DHT22;6042;41.326;19.826;2022-07-04T09:36:20;33.50;77.40
11965;DHT22;6042;41.326;19.826;2022-07-04T09:39:07;33.50;77.80
11965;DHT22;6042;41.326;19.826;2022-07-04T09:41:56;33.40;77.80
11965;DHT22;6042;41.326;19.826;2022-07-04T09:44:27;33.50;78.70
11965;DHT22;6042;41.326;19.826;2022-07-04T09:46:57;33.50;78.70
11965;DHT22;6042;41.326;19.826;2022-07-04T09:49:26;33.80;79.30
11965;DHT22;6042;41.326;19.826;2022-07-04T09:51:54;34.00;79.90
11965;DHT22;6042;41.326;19.826;2022-07-04T09:54:26;34.00;78.30
11965;DHT22;6042;41.326;19.826;2022-07-04T09:57:00;34.00;78.20
11965;DHT22;6042;41.326;19.826;2022-07-04T09:59:30;34.00;77.10
11965;DHT22;6042;41.326;19.826;2022-07-04T10:02:07;33.90;76.50
11965;DHT22;6042;41.326;19.826;2022-07-04T10:04:44;33.90;75.40
11965;DHT22;6042;41.326;19.826;2022-07-04T10:07:30;33.90;74.30
11965;DHT22;6042;41.326;19.826;2022-07-04T10:10:00;34.00;74.90
11965;DHT22;6042;41.326;19.826;2022-07-04T10:12:28;34.10;72.50
11965;DHT22;6042;41.326;19.826;2022-07-04T10:14:57;34.20;72.10
11965;DHT22;6042;41.326;19.826;2022-07-04T10:17:26;34.30;70.80
11965;DHT22;6042;41.326;19.826;2022-07-04T10:19:55;34.40;69.00
11965;DHT22;6042;41.326;19.826;2022-07-04T10:22:23;34.40;70.70
11965;DHT22;6042;41.326;19.826;2022-07-04T10:24:52;34.50;72.40
11965;DHT22;6042;41.326;19.826;2022-07-04T10:27:22;34.60;73.60
11965;DHT22;6042;41.326;19.826;2022-07-04T10:29:51;34.70;73.10
11965;DHT22;6042;41.326;19.826;2022-07-04T10:32:20;34.80;72.40
11965;DHT22;6042;41.326;19.826;2022-07-04T10:34:49;34.80;72.60
11965;DHT22;6042;41.326;19.826;2022-07-04T10:37:17;34.70;71.20
11965;DHT22;6042;41.326;19.826;2022-07-04T10:39:46;34.70;71.20
11965;DHT22;6042;41.326;19.826;2022-07-04T10:42:24;34.90;70.50
11965;DHT22;6042;41.326;19.826;2022-07-04T10:44:53;34.80;69.40
11965;DHT22;6042;41.326;19.826;2022-07-04T10:47:24;34.80;69.10
11965;DHT22;6042;41.326;19.826;2022-07-04T10:49:55;34.80;68.70
11965;DHT22;6042;41.326;19.826;2022-07-04T10:52:24;35.00;68.30
11965;DHT22;6042;41.326;19.826;2022-07-04T10:54:52;35.00;69.30
11965;DHT22;6042;41.326;19.826;2022-07-04T10:57:23;35.00;69.30
11965;DHT22;6042;41.326;19.826;2022-07-04T11:00:06;35.20;69.10
11965;DHT22;6042;41.326;19.826;2022-07-04T11:02:36;35.40;69.00
11965;DHT22;6042;41.326;19.826;2022-07-04T11:05:08;35.40;69.90
11965;DHT22;6042;41.326;19.826;2022-07-04T11:07:58;35.70;69.60
11965;DHT22;6042;41.326;19.826;2022-07-04T11:10:27;35.80;70.00
11965;DHT22;6042;41.326;19.826;2022-07-04T11:13:15;35.90;67.60
11965;DHT22;6042;41.326;19.826;2022-07-04T11:16:03;36.10;69.50
11965;DHT22;6042;41.326;19.826;2022-07-04T11:18:41;36.20;67.30
11965;DHT22;6042;41.326;19.826;2022-07-04T11:21:20;36.10;67.70
11965;DHT22;6042;41.326;19.826;2022-07-04T11:23:53;36.20;69.10
11965;DHT22;6042;41.326;19.826;2022-07-04T11:26:23;36.20;68.00
11965;DHT22;6042;41.326;19.826;2022-07-04T11:28:54;36.40;71.30
11965;DHT22;6042;41.326;19.826;2022-07-04T11:31:35;36.40;79.70
11965;DHT22;6042;41.326;19.826;2022-07-04T11:34:04;36.40;80.80
11965;DHT22;6042;41.326;19.826;2022-07-04T11:36:33;36.20;78.90
11965;DHT22;6042;41.326;19.826;2022-07-04T11:39:04;36.30;79.90
11965;DHT22;6042;41.326;19.826;2022-07-04T11:41:35;36.20;79.60
11965;DHT22;6042;41.326;19.826;2022-07-04T11:44:23;36.20;78.70
11965;DHT22;6042;41.326;19.826;2022-07-04T11:47:14;36.00;77.90
11965;DHT22;6042;41.326;19.826;2022-07-04T11:49:46;36.10;79.30
11965;DHT22;6042;41.326;19.826;2022-07-04T11:52:16;36.20;82.00
11965;DHT22;6042;41.326;19.826;2022-07-04T11:55:06;36.10;81.00
11965;DHT22;6042;41.326;19.826;2022-07-04T11:57:37;35.80;81.80
11965;DHT22;6042;41.326;19.826;2022-07-04T12:00:09;35.80;84.20
11965;DHT22;6042;41.326;19.826;2022-07-04T12:02:44;35.90;83.90
11965;DHT22;6042;41.326;19.826;2022-07-04T12:05:14;35.90;83.40
11965;DHT22;6042;41.326;19.826;2022-07-04T12:07:44;36.10;82.90
11965;DHT22;6042;41.326;19.826;2022-07-04T12:10:34;36.00;82.50
11965;DHT22;6042;41.326;19.826;2022-07-04T12:13:04;35.90;82.80
11965;DHT22;6042;41.326;19.826;2022-07-04T12:15:41;36.00;82.30
11965;DHT22;6042;41.326;19.826;2022-07-04T12:18:16;35.90;82.40
11965;DHT22;6042;41.326;19.826;2022-07-04T12:20:46;35.80;82.70
11965;DHT22;6042;41.326;19.826;2022-07-04T12:23:15;35.60;83.20
11965;DHT22;6042;41.326;19.826;2022-07-04T12:25:45;35.60;82.90
11965;DHT22;6042;41.326;19.826;2022-07-04T12:28:15;35.60;83.00
11965;DHT22;6042;41.326;19.826;2022-07-04T12:30:51;36.10;81.70
11965;DHT22;6042;41.326;19.826;2022-07-04T12:33:21;36.10;82.20
11965;DHT22;6042;41.326;19.826;2022-07-04T12:35:50;36.40;81.10
11965;DHT22;6042;41.326;19.826;2022-07-04T12:38:22;36.40;81.00
11965;DHT22;6042;41.326;19.826;2022-07-04T12:40:55;36.30;81.20
11965;DHT22;6042;41.326;19.826;2022-07-04T12:43:43;36.10;82.60
11965;DHT22;6042;41.326;19.826;2022-07-04T12:46:25;35.70;84.00
11965;DHT22;6042;41.326;19.826;2022-07-04T12:48:55;35.90;85.80
11965;DHT22;6042;41.326;19.826;2022-07-04T12:51:26;36.30;85.60
11965;DHT22;6042;41.326;19.826;2022-07-04T12:53:56;36.80;85.60
11965;DHT22;6042;41.326;19.826;2022-07-04T12:56:29;36.90;85.00
11965;DHT22;6042;41.326;19.826;2022-07-04T12:58:59;37.20;84.30
11965;DHT22;6042;41.326;19.826;2022-07-04T13:01:29;37.40;84.00
11965;DHT22;6042;41.326;19.826;2022-07-04T13:03:59;37.30;83.20
11965;DHT22;6042;41.326;19.826;2022-07-04T13:06:28;37.60;83.40
11965;DHT22;6042;41.326;19.826;2022-07-04T13:08:57;37.70;83.00
11965;DHT22;6042;41.326;19.826;2022-07-04T13:11:26;37.30;83.40
11965;DHT22;6042;41.326;19.826;2022-07-04T13:14:11;37.60;83.70
11965;DHT22;6042;41.326;19.826;2022-07-04T13:16:41;37.50;82.90
11965;DHT22;6042;41.326;19.826;2022-07-04T13:19:10;36.90;84.70
11965;DHT22;6042;41.326;19.826;2022-07-04T13:21:39;37.10;83.80
11965;DHT22;6042;41.326;19.826;2022-07-04T13:24:07;37.20;83.60
11965;DHT22;6042;41.326;19.826;2022-07-04T13:26:36;37.30;83.20
11965;DHT22;6042;41.326;19.826;2022-07-04T13:29:06;37.80;82.50
11965;DHT22;6042;41.326;19.826;2022-07-04T13:31:41;38.20;80.70
11965;DHT22;6042;41.326;19.826;2022-07-04T13:34:09;38.20;79.60
11965;DHT22;6042;41.326;19.826;2022-07-04T13:36:38;38.00;80.50
11965;DHT22;6042;41.326;19.826;2022-07-04T13:39:07;37.60;82.70
11965;DHT22;6042;41.326;19.826;2022-07-04T13:41:40;37.40;82.50
11965;DHT22;6042;41.326;19.826;2022-07-04T13:44:09;37.20;82.90
11965;DHT22;6042;41.326;19.826;2022-07-04T13:46:44;37.40;82.10
11965;DHT22;6042;41.326;19.826;2022-07-04T13:49:13;37.80;80.80
11965;DHT22;6042;41.326;19.826;2022-07-04T13:51:41;38.00;80.20
11965;DHT22;6042;41.326;19.826;2022-07-04T13:54:10;38.10;80.40
11965;DHT22;6042;41.326;19.826;2022-07-04T13:56:39;38.20;79.10
11965;DHT22;6042;41.326;19.826;2022-07-04T13:59:09;37.90;79.30
11965;DHT22;6042;41.326;19.826;2022-07-04T14:01:37;38.10;79.60
11965;DHT22;6042;41.326;19.826;2022-07-04T14:04:08;38.10;78.90
11965;DHT22;6042;41.326;19.826;2022-07-04T14:06:36;38.40;78.40
11965;DHT22;6042;41.326;19.826;2022-07-04T14:09:05;38.30;78.50
11965;DHT22;6042;41.326;19.826;2022-07-04T14:11:33;38.70;77.60
11965;DHT22;6042;41.326;19.826;2022-07-04T14:14:02;38.30;78.20
11965;DHT22;6042;41.326;19.826;2022-07-04T14:16:30;37.80;79.10
11965;DHT22;6042;41.326;19.826;2022-07-04T14:19:00;37.60;79.20
11965;DHT22;6042;41.326;19.826;2022-07-04T14:21:30;37.60;79.30
11965;DHT22;6042;41.326;19.826;2022-07-04T14:23:58;36.60;81.60
11965;DHT22;6042;41.326;19.826;2022-07-04T14:26:27;36.30;82.50
11965;DHT22;6042;41.326;19.826;2022-07-04T14:28:56;36.50;82.30
11965;DHT22;6042;41.326;19.826;2022-07-04T14:31:25;37.10;80.50
11965;DHT22;6042;41.326;19.826;2022-07-04T14:33:53;37.60;78.90
11965;DHT22;6042;41.326;19.826;2022-07-04T14:36:24;37.80;78.10
11965;DHT22;6042;41.326;19.826;2022-07-04T14:38:54;38.00;77.60
11965;DHT22;6042;41.326;19.826;2022-07-04T14:41:22;37.80;77.90
11965;DHT22;6042;41.326;19.826;2022-07-04T14:43:52;38.40;76.00
11965;DHT22;6042;41.326;19.826;2022-07-04T14:46:23;38.30;74.70
11965;DHT22;6042;41.326;19.826;2022-07-04T14:48:52;38.60;74.20
11965;DHT22;6042;41.326;19.826;2022-07-04T14:51:20;38.20;73.00
11965;DHT22;6042;41.326;19.826;2022-07-04T14:53:49;38.40;72.40
11965;DHT22;6042;41.326;19.826;2022-07-04T14:56:20;38.70;70.50
11965;DHT22;6042;41.326;19.826;2022-07-04T14:58:49;38.90;69.40
11965;DHT22;6042;41.326;19.826;2022-07-04T15:01:17;38.80;69.30
11965;DHT22;6042;41.326;19.826;2022-07-04T15:03:47;38.60;70.10
11965;DHT22;6042;41.326;19.826;2022-07-04T15:06:15;38.40;70.40
11965;DHT22;6042;41.326;19.826;2022-07-04T15:08:44;38.40;70.00
11965;DHT22;6042;41.326;19.826;2022-07-04T15:11:13;37.70;71.30
11965;DHT22;6042;41.326;19.826;2022-07-04T15:13:47;37.80;71.50
11965;DHT22;6042;41.326;19.826;2022-07-04T15:16:16;38.20;69.80
11965;DHT22;6042;41.326;19.826;2022-07-04T15:18:50;38.50;69.20
11965;DHT22;6042;41.326;19.826;2022-07-04T15:21:19;38.70;68.60
11965;DHT22;6042;41.326;19.826;2022-07-04T15:24:06;38.30;68.70
11965;DHT22;6042;41.326;19.826;2022-07-04T15:26:44;38.40;68.90
11965;DHT22;6042;41.326;19.826;2022-07-04T15:29:14;38.70;68.50
11965;DHT22;6042;41.326;19.826;2022-07-04T15:31:43;38.40;67.90
11965;DHT22;6042;41.326;19.826;2022-07-04T15:34:13;38.10;68.50
11965;DHT22;6042;41.326;19.826;2022-07-04T15:36:41;38.20;68.80
11965;DHT22;6042;41.326;19.826;2022-07-04T15:39:11;38.60;67.80
11965;DHT22;6042;41.326;19.826;2022-07-04T15:41:40;38.20;67.60
11965;DHT22;6042;41.326;19.826;2022-07-04T15:44:09;37.50;69.50
11965;DHT22;6042;41.326;19.826;2022-07-04T15:46:39;37.10;70.80
11965;DHT22;6042;41.326;19.826;2022-07-04T15:49:21;36.90;71.20
11965;DHT22;6042;41.326;19.826;2022-07-04T15:51:50;37.20;71.20